SBCJ/CKS METAR and TAF weather

Enter ICAO airport designator
Station Type Date Time Source
SBCJ METAR 2022/11/30 11:25 UTC NOAA

SBCJ 301125Z 35005KT 5000 1200E BR BCFG BKN003 OVC080 21/20 Q1013


Station Type Date Time Source
SBCJ Decoded METAR 2022/11/30 11:25 UTC NOAA

Carajas / Maraba, Brazil (SBCJ) 06-07S 050-00W
Nov 30, 2022 - 06:25 AM EST / 2022.11.30 1125 UTC
Wind: from the N (350 degrees) at 6 MPH (5 KT):0
Visibility: 3 mile(s):0
Sky conditions: overcast
Weather: mist; patches of fog
Temperature: 69 F (21 C)
Dew Point: 68 F (20 C)
Relative Humidity: 94%
Pressure (altimeter): 29.91 in. Hg (1013 hPa)
ob: SBCJ 301125Z 35005KT 5000 1200E BR BCFG BKN003 OVC080 21/20 Q1013
cycle: 11

Station Type Date Time Source
SBCJ TAF 2022/11/30 12:03 UTC NOAA

TAF TAF SBCJ 300900Z 3012/3024 34007KT 4000 RA BR SCT005 BKN012 TN23/3012Z TX26/3018Z
BECMG 3014/3015 7000 NSW BKN015
BECMG 3017/3018 30010KT BKN015 FEW025TCU
BECMG 3020/3021 03007KT 3500 TSRA BKN010 FEW020CB
RMK PGB

Example: see airport list